sensor_id;sensor_type;location;lat;lon;timestamp;pressure;altitude;pressure_sealevel;temperature;humidity
38786;BME280;24535;45.508;12.252;2022-09-01T00:00:45;101161.97;;;26.94;54.25
38786;BME280;24535;45.508;12.252;2022-09-01T00:03:19;101152.38;;;26.92;54.08
38786;BME280;24535;45.508;12.252;2022-09-01T00:05:47;101158.84;;;26.91;54.48
38786;BME280;24535;45.508;12.252;2022-09-01T00:08:14;101156.53;;;26.87;54.24
38786;BME280;24535;45.508;12.252;2022-09-01T00:10:51;101160.06;;;26.88;54.16
38786;BME280;24535;45.508;12.252;2022-09-01T00:13:16;101163.41;;;26.90;54.38
38786;BME280;24535;45.508;12.252;2022-09-01T00:15:54;101146.97;;;26.92;54.25
38786;BME280;24535;45.508;12.252;2022-09-01T00:18:26;101154.44;;;26.90;53.97
38786;BME280;24535;45.508;12.252;2022-09-01T00:20:51;101156.28;;;26.82;53.72
38786;BME280;24535;45.508;12.252;2022-09-01T00:23:17;101147.47;;;26.74;53.86
38786;BME280;24535;45.508;12.252;2022-09-01T00:25:42;101154.13;;;26.71;53.81
38786;BME280;24535;45.508;12.252;2022-09-01T00:28:08;101147.44;;;26.67;54.18
38786;BME280;24535;45.508;12.252;2022-09-01T00:30:33;101152.63;;;26.62;54.21
38786;BME280;24535;45.508;12.252;2022-09-01T00:32:59;101145.53;;;26.61;54.40
38786;BME280;24535;45.508;12.252;2022-09-01T00:35:24;101144.06;;;26.58;54.42
38786;BME280;24535;45.508;12.252;2022-09-01T00:37:50;101154.22;;;26.56;54.46
38786;BME280;24535;45.508;12.252;2022-09-01T00:40:16;101148.38;;;26.53;54.53
38786;BME280;24535;45.508;12.252;2022-09-01T00:42:42;101149.22;;;26.53;54.83
38786;BME280;24535;45.508;12.252;2022-09-01T00:45:09;101156.94;;;26.56;54.68
38786;BME280;24535;45.508;12.252;2022-09-01T00:47:36;101154.88;;;26.58;54.60
38786;BME280;24535;45.508;12.252;2022-09-01T00:50:06;101151.34;;;26.58;54.91
38786;BME280;24535;45.508;12.252;2022-09-01T00:52:43;101150.31;;;26.59;54.59
38786;BME280;24535;45.508;12.252;2022-09-01T00:55:42;101161.75;;;26.61;54.66
38786;BME280;24535;45.508;12.252;2022-09-01T00:58:08;101159.47;;;26.58;54.52
38786;BME280;24535;45.508;12.252;2022-09-01T01:00:37;101160.69;;;26.55;54.96
38786;BME280;24535;45.508;12.252;2022-09-01T01:03:09;101159.47;;;26.58;55.01
38786;BME280;24535;45.508;12.252;2022-09-01T01:05:41;101160.28;;;26.58;54.73
38786;BME280;24535;45.508;12.252;2022-09-01T01:08:11;101164.00;;;26.57;54.52
38786;BME280;24535;45.508;12.252;2022-09-01T01:10:40;101159.63;;;26.56;54.67
38786;BME280;24535;45.508;12.252;2022-09-01T01:13:16;101167.38;;;26.59;54.44
38786;BME280;24535;45.508;12.252;2022-09-01T01:15:42;101162.34;;;26.56;54.76
38786;BME280;24535;45.508;12.252;2022-09-01T01:18:13;101174.63;;;26.59;54.43
38786;BME280;24535;45.508;12.252;2022-09-01T01:20:38;101169.41;;;26.57;54.49
38786;BME280;24535;45.508;12.252;2022-09-01T01:25:56;101172.31;;;26.56;54.54
38786;BME280;24535;45.508;12.252;2022-09-01T01:33:55;101157.31;;;26.47;54.51
38786;BME280;24535;45.508;12.252;2022-09-01T01:36:22;101155.63;;;26.46;54.96
38786;BME280;24535;45.508;12.252;2022-09-01T01:39:06;101158.13;;;26.47;55.13
38786;BME280;24535;45.508;12.252;2022-09-01T01:41:34;101154.59;;;26.47;54.85
38786;BME280;24535;45.508;12.252;2022-09-01T01:44:02;101161.66;;;26.48;54.56
38786;BME280;24535;45.508;12.252;2022-09-01T01:46:34;101160.63;;;26.49;54.68
38786;BME280;24535;45.508;12.252;2022-09-01T01:49:00;101159.53;;;26.43;54.78
38786;BME280;24535;45.508;12.252;2022-09-01T01:51:28;101157.84;;;26.42;55.04
38786;BME280;24535;45.508;12.252;2022-09-01T01:53:57;101165.97;;;26.42;54.92
38786;BME280;24535;45.508;12.252;2022-09-01T01:56:26;101153.28;;;26.43;54.72
38786;BME280;24535;45.508;12.252;2022-09-01T01:58:55;101163.88;;;26.44;54.93
38786;BME280;24535;45.508;12.252;2022-09-01T02:01:23;101158.69;;;26.43;54.56
38786;BME280;24535;45.508;12.252;2022-09-01T02:06:45;101156.75;;;26.36;54.29
38786;BME280;24535;45.508;12.252;2022-09-01T02:09:14;101154.47;;;26.33;54.15
38786;BME280;24535;45.508;12.252;2022-09-01T02:11:40;101155.63;;;26.24;54.61
38786;BME280;24535;45.508;12.252;2022-09-01T02:14:06;101162.91;;;26.24;54.35
38786;BME280;24535;45.508;12.252;2022-09-01T02:16:33;101157.31;;;26.25;54.52
38786;BME280;24535;45.508;12.252;2022-09-01T02:19:00;101160.19;;;26.24;54.23
38786;BME280;24535;45.508;12.252;2022-09-01T02:21:26;101161.63;;;26.20;54.63
38786;BME280;24535;45.508;12.252;2022-09-01T02:23:59;101157.63;;;26.16;54.75
38786;BME280;24535;45.508;12.252;2022-09-01T02:26:42;101162.00;;;26.17;54.70
38786;BME280;24535;45.508;12.252;2022-09-01T02:29:18;101168.06;;;26.19;54.61
38786;BME280;24535;45.508;12.252;2022-09-01T02:31:50;101159.50;;;26.15;54.71
38786;BME280;24535;45.508;12.252;2022-09-01T02:34:16;101157.84;;;26.14;54.62
38786;BME280;24535;45.508;12.252;2022-09-01T02:36:45;101159.25;;;26.10;54.66
38786;BME280;24535;45.508;12.252;2022-09-01T02:39:23;101151.16;;;26.10;54.70
38786;BME280;24535;45.508;12.252;2022-09-01T02:41:49;101159.88;;;26.12;54.70
38786;BME280;24535;45.508;12.252;2022-09-01T02:44:21;101152.38;;;26.07;54.51
38786;BME280;24535;45.508;12.252;2022-09-01T02:46:49;101154.81;;;26.02;55.01
38786;BME280;24535;45.508;12.252;2022-09-01T02:49:18;101160.69;;;26.06;54.82
38786;BME280;24535;45.508;12.252;2022-09-01T02:51:56;101151.75;;;26.05;55.38
38786;BME280;24535;45.508;12.252;2022-09-01T02:54:26;101161.13;;;26.09;54.96
38786;BME280;24535;45.508;12.252;2022-09-01T02:56:53;101156.56;;;26.10;54.30
38786;BME280;24535;45.508;12.252;2022-09-01T02:59:21;101157.97;;;26.06;54.40
38786;BME280;24535;45.508;12.252;2022-09-01T03:01:48;101151.28;;;26.02;54.45
38786;BME280;24535;45.508;12.252;2022-09-01T03:04:15;101152.06;;;25.96;54.30
38786;BME280;24535;45.508;12.252;2022-09-01T03:06:41;101152.44;;;25.93;54.21
38786;BME280;24535;45.508;12.252;2022-09-01T03:09:10;101154.97;;;25.94;54.44
38786;BME280;24535;45.508;12.252;2022-09-01T03:11:43;101152.25;;;25.94;53.93
38786;BME280;24535;45.508;12.252;2022-09-01T03:14:09;101158.09;;;25.98;54.27
38786;BME280;24535;45.508;12.252;2022-09-01T03:16:36;101157.66;;;25.94;54.21
38786;BME280;24535;45.508;12.252;2022-09-01T03:19:04;101157.06;;;25.99;53.90
38786;BME280;24535;45.508;12.252;2022-09-01T03:21:37;101163.97;;;26.01;53.83
38786;BME280;24535;45.508;12.252;2022-09-01T03:24:08;101155.59;;;25.96;53.73
38786;BME280;24535;45.508;12.252;2022-09-01T03:26:38;101159.78;;;25.99;53.62
38786;BME280;24535;45.508;12.252;2022-09-01T03:29:04;101154.50;;;25.91;53.43
38786;BME280;24535;45.508;12.252;2022-09-01T03:31:30;101149.69;;;25.86;53.51
38786;BME280;24535;45.508;12.252;2022-09-01T03:33:56;101160.41;;;25.79;53.52
38786;BME280;24535;45.508;12.252;2022-09-01T03:36:23;101154.94;;;25.73;53.58
38786;BME280;24535;45.508;12.252;2022-09-01T03:38:50;101151.50;;;25.64;53.53
38786;BME280;24535;45.508;12.252;2022-09-01T03:41:24;101150.41;;;25.58;53.37
38786;BME280;24535;45.508;12.252;2022-09-01T03:46:42;101155.19;;;25.56;53.04
38786;BME280;24535;45.508;12.252;2022-09-01T03:49:11;101166.34;;;25.53;53.10
38786;BME280;24535;45.508;12.252;2022-09-01T03:51:41;101166.91;;;25.49;53.24
38786;BME280;24535;45.508;12.252;2022-09-01T03:54:09;101161.06;;;25.45;53.17
38786;BME280;24535;45.508;12.252;2022-09-01T03:56:38;101166.81;;;25.42;53.36
38786;BME280;24535;45.508;12.252;2022-09-01T03:59:05;101154.16;;;25.43;53.13
38786;BME280;24535;45.508;12.252;2022-09-01T04:01:31;101155.19;;;25.42;53.31
38786;BME280;24535;45.508;12.252;2022-09-01T04:04:02;101160.59;;;25.42;53.19
38786;BME280;24535;45.508;12.252;2022-09-01T04:06:29;101163.22;;;25.35;53.28
38786;BME280;24535;45.508;12.252;2022-09-01T04:08:56;101157.75;;;25.28;53.32
38786;BME280;24535;45.508;12.252;2022-09-01T04:11:27;101161.44;;;25.27;53.29
38786;BME280;24535;45.508;12.252;2022-09-01T04:13:58;101150.66;;;25.27;53.47
38786;BME280;24535;45.508;12.252;2022-09-01T04:16:29;101153.09;;;25.22;53.31
38786;BME280;24535;45.508;12.252;2022-09-01T04:19:15;101151.06;;;25.24;53.30
38786;BME280;24535;45.508;12.252;2022-09-01T04:25:18;101155.53;;;25.17;53.64
38786;BME280;24535;45.508;12.252;2022-09-01T04:27:50;101141.78;;;25.12;53.19
38786;BME280;24535;45.508;12.252;2022-09-01T04:30:18;101140.28;;;25.09;53.55
38786;BME280;24535;45.508;12.252;2022-09-01T04:32:43;101132.19;;;25.09;53.87
38786;BME280;24535;45.508;12.252;2022-09-01T04:35:11;101133.19;;;25.08;53.81
38786;BME280;24535;45.508;12.252;2022-09-01T04:37:41;101120.44;;;25.02;53.61
38786;BME280;24535;45.508;12.252;2022-09-01T04:40:08;101121.69;;;25.00;53.71
38786;BME280;24535;45.508;12.252;2022-09-01T04:42:34;101121.84;;;24.98;53.59
38786;BME280;24535;45.508;12.252;2022-09-01T04:45:02;101118.31;;;24.98;53.85
38786;BME280;24535;45.508;12.252;2022-09-01T04:47:28;101124.91;;;24.95;54.05
38786;BME280;24535;45.508;12.252;2022-09-01T04:49:58;101130.50;;;24.94;53.73
38786;BME280;24535;45.508;12.252;2022-09-01T04:52:27;101128.38;;;24.89;53.74
38786;BME280;24535;45.508;12.252;2022-09-01T04:54:53;101125.88;;;24.87;53.60
38786;BME280;24535;45.508;12.252;2022-09-01T04:57:20;101121.50;;;24.86;53.70
38786;BME280;24535;45.508;12.252;2022-09-01T04:59:46;101117.78;;;24.87;53.82
38786;BME280;24535;45.508;12.252;2022-09-01T05:02:11;101120.66;;;24.86;54.12
38786;BME280;24535;45.508;12.252;2022-09-01T05:04:37;101121.88;;;24.83;54.16
38786;BME280;24535;45.508;12.252;2022-09-01T05:07:04;101119.19;;;24.83;53.82
38786;BME280;24535;45.508;12.252;2022-09-01T05:09:32;101116.84;;;24.80;53.76
38786;BME280;24535;45.508;12.252;2022-09-01T05:12:05;101119.34;;;24.82;53.97
38786;BME280;24535;45.508;12.252;2022-09-01T05:18:09;101120.03;;;24.84;53.89
38786;BME280;24535;45.508;12.252;2022-09-01T05:20:45;101122.88;;;24.82;54.07
38786;BME280;24535;45.508;12.252;2022-09-01T05:23:58;101116.66;;;24.82;53.65
38786;BME280;24535;45.508;12.252;2022-09-01T05:26:30;101130.97;;;24.82;53.60
38786;BME280;24535;45.508;12.252;2022-09-01T05:29:00;101119.56;;;24.80;53.66
38786;BME280;24535;45.508;12.252;2022-09-01T05:31:28;101128.09;;;24.84;53.40
38786;BME280;24535;45.508;12.252;2022-09-01T05:34:03;101124.38;;;24.85;53.85
38786;BME280;24535;45.508;12.252;2022-09-01T05:36:29;101135.44;;;24.90;53.50
38786;BME280;24535;45.508;12.252;2022-09-01T05:38:59;101139.63;;;24.92;53.18
38786;BME280;24535;45.508;12.252;2022-09-01T05:41:30;101133.66;;;24.97;53.11
38786;BME280;24535;45.508;12.252;2022-09-01T05:44:14;101136.47;;;25.04;52.88
38786;BME280;24535;45.508;12.252;2022-09-01T05:46:41;101140.63;;;25.06;52.94
38786;BME280;24535;45.508;12.252;2022-09-01T05:49:11;101148.53;;;25.08;52.66
38786;BME280;24535;45.508;12.252;2022-09-01T05:51:47;101149.38;;;25.08;52.55
38786;BME280;24535;45.508;12.252;2022-09-01T05:54:18;101154.41;;;25.11;52.63
38786;BME280;24535;45.508;12.252;2022-09-01T05:56:49;101154.03;;;25.14;52.69
38786;BME280;24535;45.508;12.252;2022-09-01T05:59:15;101159.69;;;25.20;52.31
38786;BME280;24535;45.508;12.252;2022-09-01T06:05:07;101153.88;;;25.16;52.11
38786;BME280;24535;45.508;12.252;2022-09-01T06:07:33;101158.50;;;25.22;52.22
38786;BME280;24535;45.508;12.252;2022-09-01T06:10:00;101167.25;;;25.24;52.21
38786;BME280;24535;45.508;12.252;2022-09-01T06:12:25;101176.63;;;25.28;52.05
38786;BME280;24535;45.508;12.252;2022-09-01T06:14:53;101175.84;;;25.34;52.19
38786;BME280;24535;45.508;12.252;2022-09-01T06:17:21;101173.81;;;25.36;52.06
38786;BME280;24535;45.508;12.252;2022-09-01T06:19:48;101164.69;;;25.37;51.72
38786;BME280;24535;45.508;12.252;2022-09-01T06:25:38;101168.88;;;25.40;51.85
38786;BME280;24535;45.508;12.252;2022-09-01T06:28:06;101172.41;;;25.40;51.73
38786;BME280;24535;45.508;12.252;2022-09-01T06:30:33;101178.66;;;25.41;52.04
38786;BME280;24535;45.508;12.252;2022-09-01T06:33:01;101179.47;;;25.42;52.04
38786;BME280;24535;45.508;12.252;2022-09-01T06:35:29;101177.41;;;25.44;51.82
38786;BME280;24535;45.508;12.252;2022-09-01T06:37:56;101177.41;;;25.44;52.08
38786;BME280;24535;45.508;12.252;2022-09-01T06:40:22;101178.91;;;25.46;52.01
38786;BME280;24535;45.508;12.252;2022-09-01T06:42:51;101190.78;;;25.52;51.96
38786;BME280;24535;45.508;12.252;2022-09-01T06:45:20;101195.25;;;25.59;51.97
38786;BME280;24535;45.508;12.252;2022-09-01T06:47:47;101194.66;;;25.64;51.82
38786;BME280;24535;45.508;12.252;2022-09-01T06:50:17;101197.25;;;25.72;51.62
38786;BME280;24535;45.508;12.252;2022-09-01T06:52:45;101201.09;;;25.78;51.27
38786;BME280;24535;45.508;12.252;2022-09-01T06:58:02;101200.84;;;25.94;51.32
38786;BME280;24535;45.508;12.252;2022-09-01T07:00:29;101201.31;;;25.98;51.31
38786;BME280;24535;45.508;12.252;2022-09-01T07:02:56;101201.78;;;26.01;50.72
38786;BME280;24535;45.508;12.252;2022-09-01T07:05:23;101212.16;;;26.04;50.77
38786;BME280;24535;45.508;12.252;2022-09-01T07:07:50;101222.13;;;26.04;50.98
38786;BME280;24535;45.508;12.252;2022-09-01T07:10:26;101214.69;;;26.06;51.12
38786;BME280;24535;45.508;12.252;2022-09-01T07:12:54;101220.13;;;26.12;51.11
38786;BME280;24535;45.508;12.252;2022-09-01T07:15:21;101221.41;;;26.17;50.93
38786;BME280;24535;45.508;12.252;2022-09-01T07:17:52;101220.00;;;26.21;50.94
38786;BME280;24535;45.508;12.252;2022-09-01T07:20:20;101217.38;;;26.27;50.56
38786;BME280;24535;45.508;12.252;2022-09-01T07:23:25;101222.84;;;26.34;50.44
38786;BME280;24535;45.508;12.252;2022-09-01T07:25:52;101223.31;;;26.37;50.05
38786;BME280;24535;45.508;12.252;2022-09-01T07:28:28;101228.25;;;26.34;49.94
38786;BME280;24535;45.508;12.252;2022-09-01T07:30:54;101229.72;;;26.36;50.03
38786;BME280;24535;45.508;12.252;2022-09-01T07:33:21;101233.91;;;26.39;50.22
38786;BME280;24535;45.508;12.252;2022-09-01T07:35:50;101228.13;;;26.42;50.23
38786;BME280;24535;45.508;12.252;2022-09-01T07:38:21;101230.44;;;26.45;49.88
38786;BME280;24535;45.508;12.252;2022-09-01T07:40:46;101241.25;;;26.45;49.91
38786;BME280;24535;45.508;12.252;2022-09-01T07:43:24;101236.03;;;26.44;49.68
38786;BME280;24535;45.508;12.252;2022-09-01T07:45:54;101235.66;;;26.47;49.89
38786;BME280;24535;45.508;12.252;2022-09-01T07:48:22;101253.78;;;26.53;49.70
38786;BME280;24535;45.508;12.252;2022-09-01T07:50:51;101256.78;;;26.58;49.59
38786;BME280;24535;45.508;12.252;2022-09-01T07:53:30;101252.56;;;26.55;49.54
38786;BME280;24535;45.508;12.252;2022-09-01T07:55:59;101259.84;;;26.55;49.31
38786;BME280;24535;45.508;12.252;2022-09-01T07:58:27;101264.88;;;26.58;49.42
38786;BME280;24535;45.508;12.252;2022-09-01T08:00:54;101271.34;;;26.63;49.24
38786;BME280;24535;45.508;12.252;2022-09-01T08:03:25;101259.31;;;26.66;48.76
38786;BME280;24535;45.508;12.252;2022-09-01T08:05:51;101265.22;;;26.76;48.98
38786;BME280;24535;45.508;12.252;2022-09-01T08:08:43;101265.91;;;26.85;48.88
38786;BME280;24535;45.508;12.252;2022-09-01T08:11:15;101258.69;;;26.92;48.91
38786;BME280;24535;45.508;12.252;2022-09-01T08:13:41;101249.13;;;26.96;48.82
38786;BME280;24535;45.508;12.252;2022-09-01T08:16:07;101261.47;;;27.05;48.66
38786;BME280;24535;45.508;12.252;2022-09-01T08:18:33;101259.41;;;27.07;48.37
38786;BME280;24535;45.508;12.252;2022-09-01T08:20:58;101252.13;;;27.08;48.04
38786;BME280;24535;45.508;12.252;2022-09-01T08:23:27;101254.84;;;27.08;48.05
38786;BME280;24535;45.508;12.252;2022-09-01T08:25:53;101258.00;;;27.11;47.97
38786;BME280;24535;45.508;12.252;2022-09-01T08:28:21;101258.84;;;27.12;48.00
38786;BME280;24535;45.508;12.252;2022-09-01T08:30:46;101260.75;;;27.18;48.38
38786;BME280;24535;45.508;12.252;2022-09-01T08:33:13;101266.81;;;27.20;48.20
38786;BME280;24535;45.508;12.252;2022-09-01T08:35:45;101268.69;;;27.20;47.76
38786;BME280;24535;45.508;12.252;2022-09-01T08:38:11;101275.34;;;27.24;47.42
38786;BME280;24535;45.508;12.252;2022-09-01T08:40:36;101279.94;;;27.23;47.22
38786;BME280;24535;45.508;12.252;2022-09-01T08:46:33;101286.66;;;27.34;47.31
38786;BME280;24535;45.508;12.252;2022-09-01T08:49:03;101283.34;;;27.39;47.13
38786;BME280;24535;45.508;12.252;2022-09-01T08:51:37;101283.59;;;27.44;46.56
38786;BME280;24535;45.508;12.252;2022-09-01T08:54:09;101282.38;;;27.53;46.76
38786;BME280;24535;45.508;12.252;2022-09-01T08:56:39;101284.31;;;27.66;46.91
38786;BME280;24535;45.508;12.252;2022-09-01T09:02:17;101274.81;;;27.83;46.23
38786;BME280;24535;45.508;12.252;2022-09-01T09:16:18;101268.47;;;28.30;45.92
38786;BME280;24535;45.508;12.252;2022-09-01T09:18:49;101271.66;;;28.47;45.48
38786;BME280;24535;45.508;12.252;2022-09-01T09:27:22;101272.25;;;28.96;44.83
38786;BME280;24535;45.508;12.252;2022-09-01T09:29:51;101264.16;;;29.09;44.42
38786;BME280;24535;45.508;12.252;2022-09-01T09:32:18;101263.47;;;29.20;43.96
38786;BME280;24535;45.508;12.252;2022-09-01T09:34:44;101264.69;;;29.31;43.56
38786;BME280;24535;45.508;12.252;2022-09-01T09:37:30;101271.38;;;29.42;42.99
38786;BME280;24535;45.508;12.252;2022-09-01T09:42:36;101272.97;;;29.63;42.88
38786;BME280;24535;45.508;12.252;2022-09-01T09:47:40;101275.38;;;29.84;42.04
38786;BME280;24535;45.508;12.252;2022-09-01T09:52:45;101266.94;;;29.99;41.49
38786;BME280;24535;45.508;12.252;2022-09-01T09:55:24;101270.50;;;29.99;41.00
38786;BME280;24535;45.508;12.252;2022-09-01T09:57:54;101262.94;;;30.01;40.77
38786;BME280;24535;45.508;12.252;2022-09-01T10:00:26;101270.22;;;30.08;40.05
38786;BME280;24535;45.508;12.252;2022-09-01T10:03:18;101265.41;;;30.10;39.55
38786;BME280;24535;45.508;12.252;2022-09-01T10:08:44;101265.84;;;30.07;39.90
38786;BME280;24535;45.508;12.252;2022-09-01T10:11:23;101266.88;;;30.05;39.76
38786;BME280;24535;45.508;12.252;2022-09-01T10:13:52;101271.28;;;30.07;40.27
38786;BME280;24535;45.508;12.252;2022-09-01T10:16:25;101263.78;;;30.02;39.25
38786;BME280;24535;45.508;12.252;2022-09-01T10:21:51;101269.44;;;30.00;39.18
38786;BME280;24535;45.508;12.252;2022-09-01T10:24:29;101265.66;;;30.01;40.05
38786;BME280;24535;45.508;12.252;2022-09-01T10:27:22;101253.97;;;30.01;40.01
38786;BME280;24535;45.508;12.252;2022-09-01T10:32:54;101262.78;;;29.90;39.61
38786;BME280;24535;45.508;12.252;2022-09-01T10:35:28;101264.50;;;29.84;39.88
38786;BME280;24535;45.508;12.252;2022-09-01T10:37:55;101252.63;;;29.78;40.28
38786;BME280;24535;45.508;12.252;2022-09-01T10:48:46;101266.94;;;29.47;40.63
38786;BME280;24535;45.508;12.252;2022-09-01T10:54:59;101271.38;;;29.35;41.47
38786;BME280;24535;45.508;12.252;2022-09-01T11:17:17;101278.28;;;29.31;41.64
38786;BME280;24535;45.508;12.252;2022-09-01T11:28:03;101279.34;;;29.23;41.34
38786;BME280;24535;45.508;12.252;2022-09-01T11:32:58;101276.03;;;29.15;41.58
38786;BME280;24535;45.508;12.252;2022-09-01T11:36:00;101272.06;;;29.11;41.37
38786;BME280;24535;45.508;12.252;2022-09-01T11:46:44;101274.53;;;29.19;42.24
38786;BME280;24535;45.508;12.252;2022-09-01T11:51:46;101275.16;;;29.21;41.89
38786;BME280;24535;45.508;12.252;2022-09-01T11:54:42;101283.94;;;29.16;41.52
38786;BME280;24535;45.508;12.252;2022-09-01T12:00:30;101279.38;;;29.03;41.13
38786;BME280;24535;45.508;12.252;2022-09-01T12:02:56;101276.25;;;29.00;41.52
38786;BME280;24535;45.508;12.252;2022-09-01T12:05:42;101274.81;;;28.97;41.78
38786;BME280;24535;45.508;12.252;2022-09-01T12:08:20;101266.66;;;28.97;40.78
38786;BME280;24535;45.508;12.252;2022-09-01T12:10:46;101278.13;;;28.93;40.94
38786;BME280;24535;45.508;12.252;2022-09-01T12:13:38;101273.13;;;28.90;40.46
38786;BME280;24535;45.508;12.252;2022-09-01T12:16:09;101263.72;;;28.86;41.13
38786;BME280;24535;45.508;12.252;2022-09-01T12:18:44;101268.09;;;28.87;40.91
38786;BME280;24535;45.508;12.252;2022-09-01T12:21:37;101266.44;;;28.86;41.01
38786;BME280;24535;45.508;12.252;2022-09-01T12:24:20;101266.44;;;28.86;41.28
38786;BME280;24535;45.508;12.252;2022-09-01T12:26:53;101271.63;;;28.87;41.24
38786;BME280;24535;45.508;12.252;2022-09-01T12:29:21;101268.75;;;28.89;41.04
38786;BME280;24535;45.508;12.252;2022-09-01T12:31:54;101276.44;;;28.92;41.05
38786;BME280;24535;45.508;12.252;2022-09-01T12:34:36;101266.03;;;28.89;40.79
38786;BME280;24535;45.508;12.252;2022-09-01T12:40:45;101280.63;;;28.88;41.17
38786;BME280;24535;45.508;12.252;2022-09-01T12:46:42;101267.91;;;28.75;40.41
38786;BME280;24535;45.508;12.252;2022-09-01T12:49:35;101291.88;;;28.71;39.72
38786;BME280;24535;45.508;12.252;2022-09-01T12:54:51;101292.50;;;28.67;40.06
38786;BME280;24535;45.508;12.252;2022-09-01T13:01:04;101288.56;;;28.63;39.91
38786;BME280;24535;45.508;12.252;2022-09-01T13:03:33;101288.56;;;28.63;40.11
38786;BME280;24535;45.508;12.252;2022-09-01T13:06:02;101282.94;;;28.57;40.01
38786;BME280;24535;45.508;12.252;2022-09-01T13:08:33;101288.16;;;28.52;39.63
38786;BME280;24535;45.508;12.252;2022-09-01T13:11:26;101283.53;;;28.46;40.33
38786;BME280;24535;45.508;12.252;2022-09-01T13:13:51;101289.38;;;28.50;40.30
38786;BME280;24535;45.508;12.252;2022-09-01T13:16:16;101285.00;;;28.49;39.88
38786;BME280;24535;45.508;12.252;2022-09-01T13:18:42;101286.28;;;28.53;40.47
38786;BME280;24535;45.508;12.252;2022-09-01T13:21:08;101289.41;;;28.56;40.19
38786;BME280;24535;45.508;12.252;2022-09-01T13:26:09;101301.88;;;28.64;40.02
38786;BME280;24535;45.508;12.252;2022-09-01T13:28:35;101301.50;;;28.61;39.86
38786;BME280;24535;45.508;12.252;2022-09-01T13:36:50;101299.38;;;28.56;39.54
38786;BME280;24535;45.508;12.252;2022-09-01T13:39:17;101288.34;;;28.51;39.59
38786;BME280;24535;45.508;12.252;2022-09-01T13:44:48;101285.38;;;28.32;39.75
38786;BME280;24535;45.508;12.252;2022-09-01T13:47:13;101289.94;;;28.25;39.40
38786;BME280;24535;45.508;12.252;2022-09-01T13:49:42;101273.03;;;28.23;39.42
38786;BME280;24535;45.508;12.252;2022-09-01T14:05:02;101277.41;;;28.11;39.65
38786;BME280;24535;45.508;12.252;2022-09-01T14:07:28;101282.19;;;28.09;39.84
38786;BME280;24535;45.508;12.252;2022-09-01T14:12:46;101283.03;;;28.09;39.61
38786;BME280;24535;45.508;12.252;2022-09-01T14:15:15;101288.44;;;28.09;39.74
38786;BME280;24535;45.508;12.252;2022-09-01T14:17:56;101285.53;;;28.11;39.94
38786;BME280;24535;45.508;12.252;2022-09-01T14:20:27;101289.09;;;28.18;39.78
38786;BME280;24535;45.508;12.252;2022-09-01T14:22:54;101285.94;;;28.15;40.04
38786;BME280;24535;45.508;12.252;2022-09-01T14:25:20;101280.13;;;28.18;39.95
38786;BME280;24535;45.508;12.252;2022-09-01T14:27:46;101295.34;;;28.19;39.90
38786;BME280;24535;45.508;12.252;2022-09-01T14:30:21;101299.13;;;28.24;40.73
38786;BME280;24535;45.508;12.252;2022-09-01T14:38:22;101291.63;;;28.33;40.45
38786;BME280;24535;45.508;12.252;2022-09-01T14:41:12;101295.59;;;28.24;40.47
38786;BME280;24535;45.508;12.252;2022-09-01T14:44:02;101291.81;;;28.18;40.77
38786;BME280;24535;45.508;12.252;2022-09-01T14:49:10;101291.78;;;28.05;40.65
38786;BME280;24535;45.508;12.252;2022-09-01T14:51:36;101297.81;;;28.07;41.10
38786;BME280;24535;45.508;12.252;2022-09-01T14:54:02;101300.53;;;28.00;41.24
38786;BME280;24535;45.508;12.252;2022-09-01T15:02:22;101294.50;;;28.05;41.43
38786;BME280;24535;45.508;12.252;2022-09-01T15:04:49;101297.81;;;28.07;41.27
38786;BME280;24535;45.508;12.252;2022-09-01T15:07:19;101281.56;;;28.00;41.29
38786;BME280;24535;45.508;12.252;2022-09-01T15:09:44;101296.13;;;27.99;41.53
38786;BME280;24535;45.508;12.252;2022-09-01T15:12:12;101300.50;;;27.94;41.15
38786;BME280;24535;45.508;12.252;2022-09-01T15:14:59;101303.16;;;27.87;41.24
38786;BME280;24535;45.508;12.252;2022-09-01T15:20:12;101297.09;;;27.78;40.85
38786;BME280;24535;45.508;12.252;2022-09-01T15:29:17;101307.50;;;27.75;40.22
38786;BME280;24535;45.508;12.252;2022-09-01T15:31:49;101305.34;;;27.70;40.01
38786;BME280;24535;45.508;12.252;2022-09-01T15:34:15;101311.59;;;27.64;39.88
38786;BME280;24535;45.508;12.252;2022-09-01T15:36:45;101303.88;;;27.61;39.63
38786;BME280;24535;45.508;12.252;2022-09-01T15:39:11;101294.88;;;27.54;40.07
38786;BME280;24535;45.508;12.252;2022-09-01T15:46:50;101313.22;;;27.58;41.30
38786;BME280;24535;45.508;12.252;2022-09-01T15:52:05;101313.63;;;27.55;40.96
38786;BME280;24535;45.508;12.252;2022-09-01T15:57:51;101307.81;;;27.58;41.26
38786;BME280;24535;45.508;12.252;2022-09-01T16:02:53;101312.00;;;27.61;41.20
38786;BME280;24535;45.508;12.252;2022-09-01T16:05:34;101311.16;;;27.60;40.90
38786;BME280;24535;45.508;12.252;2022-09-01T16:08:07;101314.69;;;27.61;41.06
38786;BME280;24535;45.508;12.252;2022-09-01T16:10:34;101315.13;;;27.65;40.87
38786;BME280;24535;45.508;12.252;2022-09-01T16:13:00;101319.72;;;27.64;40.97
38786;BME280;24535;45.508;12.252;2022-09-01T16:15:26;101320.34;;;27.66;40.87
38786;BME280;24535;45.508;12.252;2022-09-01T16:26:36;101332.59;;;27.62;41.06
38786;BME280;24535;45.508;12.252;2022-09-01T16:34:50;101335.47;;;27.54;42.12
38786;BME280;24535;45.508;12.252;2022-09-01T16:37:35;101341.09;;;27.52;41.66